sensor_id;sensor_type;location;lat;lon;timestamp;pressure;altitude;pressure_sealevel;temperature;humidity
78855;BME280;68206;59.956;30.234;2023-07-13T04:20:20;100429.00;;;22.20;37.40
78855;BME280;68206;59.956;30.234;2023-07-13T04:22:49;100416.91;;;22.03;37.52
78855;BME280;68206;59.956;30.234;2023-07-13T04:25:17;100422.66;;;21.87;37.76
78855;BME280;68206;59.956;30.234;2023-07-13T04:27:45;100423.16;;;21.81;37.77
78855;BME280;68206;59.956;30.234;2023-07-13T04:30:14;100417.19;;;22.75;36.39
78855;BME280;68206;59.956;30.234;2023-07-13T04:32:42;100413.47;;;23.99;33.85
78855;BME280;68206;59.956;30.234;2023-07-13T04:35:10;100401.88;;;25.23;32.28
78855;BME280;68206;59.956;30.234;2023-07-13T04:37:39;100418.09;;;26.07;30.51
78855;BME280;68206;59.956;30.234;2023-07-13T04:40:08;100411.59;;;26.63;29.58
78855;BME280;68206;59.956;30.234;2023-07-13T04:42:38;100413.00;;;26.84;28.83
78855;BME280;68206;59.956;30.234;2023-07-13T04:45:07;100416.50;;;26.77;28.19
78855;BME280;68206;59.956;30.234;2023-07-13T04:47:36;100423.34;;;26.45;27.44
78855;BME280;68206;59.956;30.234;2023-07-13T04:50:05;100424.28;;;26.54;27.26
78855;BME280;68206;59.956;30.234;2023-07-13T04:52:34;100413.66;;;27.22;26.75
78855;BME280;68206;59.956;30.234;2023-07-13T04:55:05;100409.19;;;27.98;26.06
78855;BME280;68206;59.956;30.234;2023-07-13T04:57:33;100421.25;;;28.46;24.50
78855;BME280;68206;59.956;30.234;2023-07-13T05:00:02;100404.00;;;27.87;24.92
78855;BME280;68206;59.956;30.234;2023-07-13T05:02:33;100401.63;;;28.34;24.50
78855;BME280;68206;59.956;30.234;2023-07-13T05:05:00;100416.00;;;28.53;24.29
78855;BME280;68206;59.956;30.234;2023-07-13T05:07:30;100420.59;;;28.68;23.69
78855;BME280;68206;59.956;30.234;2023-07-13T05:10:00;100421.47;;;28.69;23.67
78855;BME280;68206;59.956;30.234;2023-07-13T05:12:30;100420.91;;;28.33;24.16
78855;BME280;68206;59.956;30.234;2023-07-13T05:14:58;100417.97;;;28.26;24.33
78855;BME280;68206;59.956;30.234;2023-07-13T05:17:28;100420.03;;;28.32;24.76
78855;BME280;68206;59.956;30.234;2023-07-13T05:19:56;100410.69;;;28.01;25.12
78855;BME280;68206;59.956;30.234;2023-07-13T05:22:25;100404.28;;;27.50;24.80
78855;BME280;68206;59.956;30.234;2023-07-13T05:24:53;100409.44;;;27.27;25.46
78855;BME280;68206;59.956;30.234;2023-07-13T05:27:21;100407.94;;;26.72;25.88
78855;BME280;68206;59.956;30.234;2023-07-13T05:29:51;100417.56;;;26.31;26.44
78855;BME280;68206;59.956;30.234;2023-07-13T05:32:19;100419.94;;;25.89;26.20
78855;BME280;68206;59.956;30.234;2023-07-13T05:34:47;100420.22;;;25.39;27.34
78855;BME280;68206;59.956;30.234;2023-07-13T05:37:16;100425.72;;;25.20;28.08
78855;BME280;68206;59.956;30.234;2023-07-13T05:39:44;100426.00;;;24.88;28.93
78855;BME280;68206;59.956;30.234;2023-07-13T05:42:12;100425.59;;;24.83;29.29
78855;BME280;68206;59.956;30.234;2023-07-13T05:44:40;100429.59;;;24.79;30.17
78855;BME280;68206;59.956;30.234;2023-07-13T05:47:11;100432.16;;;24.71;30.61
78855;BME280;68206;59.956;30.234;2023-07-13T05:49:41;100433.56;;;24.56;31.47
78855;BME280;68206;59.956;30.234;2023-07-13T05:52:09;100424.53;;;24.26;32.46
78855;BME280;68206;59.956;30.234;2023-07-13T05:54:37;100430.06;;;24.15;32.82
78855;BME280;68206;59.956;30.234;2023-07-13T05:57:06;100421.88;;;23.96;32.83
78855;BME280;68206;59.956;30.234;2023-07-13T05:59:35;100421.69;;;23.88;33.41
78855;BME280;68206;59.956;30.234;2023-07-13T06:02:04;100423.84;;;23.84;33.47
78855;BME280;68206;59.956;30.234;2023-07-13T06:04:34;100426.81;;;23.81;33.46
78855;BME280;68206;59.956;30.234;2023-07-13T06:07:02;100417.50;;;23.74;34.07
78855;BME280;68206;59.956;30.234;2023-07-13T06:09:31;100420.28;;;23.84;33.49
78855;BME280;68206;59.956;30.234;2023-07-13T06:11:59;100417.69;;;23.82;34.08
78855;BME280;68206;59.956;30.234;2023-07-13T06:14:27;100402.34;;;24.02;33.71
78855;BME280;68206;59.956;30.234;2023-07-13T06:16:56;100409.94;;;24.18;33.29
78855;BME280;68206;59.956;30.234;2023-07-13T06:19:25;100420.53;;;24.30;33.46
78855;BME280;68206;59.956;30.234;2023-07-13T06:21:54;100430.69;;;24.38;33.72
78855;BME280;68206;59.956;30.234;2023-07-13T06:24:23;100421.00;;;24.45;33.50
78855;BME280;68206;59.956;30.234;2023-07-13T06:26:52;100425.28;;;24.38;33.83
78855;BME280;68206;59.956;30.234;2023-07-13T06:29:20;100428.56;;;24.41;33.39
78855;BME280;68206;59.956;30.234;2023-07-13T06:31:51;100429.56;;;24.40;33.29
78855;BME280;68206;59.956;30.234;2023-07-13T06:34:19;100434.69;;;24.34;33.31
78855;BME280;68206;59.956;30.234;2023-07-13T06:36:48;100434.81;;;24.32;33.38
78855;BME280;68206;59.956;30.234;2023-07-13T06:39:18;100442.41;;;24.38;33.69
78855;BME280;68206;59.956;30.234;2023-07-13T06:41:46;100446.09;;;24.37;33.43
78855;BME280;68206;59.956;30.234;2023-07-13T06:44:14;100436.97;;;24.38;33.25
78855;BME280;68206;59.956;30.234;2023-07-13T06:46:42;100439.84;;;24.46;33.29
78855;BME280;68206;59.956;30.234;2023-07-13T06:49:10;100444.13;;;24.49;33.15
78855;BME280;68206;59.956;30.234;2023-07-13T06:51:38;100447.00;;;24.47;32.90
78855;BME280;68206;59.956;30.234;2023-07-13T06:54:06;100448.28;;;24.53;32.66
78855;BME280;68206;59.956;30.234;2023-07-13T06:56:36;100442.72;;;24.55;32.68
78855;BME280;68206;59.956;30.234;2023-07-13T06:59:04;100447.13;;;24.56;33.04
78855;BME280;68206;59.956;30.234;2023-07-13T07:01:32;100450.00;;;24.54;33.27
78855;BME280;68206;59.956;30.234;2023-07-13T07:04:00;100446.56;;;24.62;33.22
78855;BME280;68206;59.956;30.234;2023-07-13T07:06:29;100449.28;;;24.71;33.16
78855;BME280;68206;59.956;30.234;2023-07-13T07:08:57;100456.44;;;24.72;32.90
78855;BME280;68206;59.956;30.234;2023-07-13T07:11:25;100447.84;;;24.77;33.33
78855;BME280;68206;59.956;30.234;2023-07-13T07:13:55;100455.69;;;24.80;33.17
78855;BME280;68206;59.956;30.234;2023-07-13T07:16:24;100445.31;;;24.95;33.03
78855;BME280;68206;59.956;30.234;2023-07-13T07:18:52;100452.88;;;25.10;32.63
78855;BME280;68206;59.956;30.234;2023-07-13T07:21:21;100460.56;;;25.24;32.14
78855;BME280;68206;59.956;30.234;2023-07-13T07:23:51;100454.22;;;25.43;32.14
78855;BME280;68206;59.956;30.234;2023-07-13T07:26:19;100463.63;;;25.68;31.83
78855;BME280;68206;59.956;30.234;2023-07-13T07:28:51;100468.88;;;25.79;31.31
78855;BME280;68206;59.956;30.234;2023-07-13T07:31:41;100475.59;;;26.12;30.86
78855;BME280;68206;59.956;30.234;2023-07-13T07:34:12;100477.63;;;26.37;30.57
78855;BME280;68206;59.956;30.234;2023-07-13T07:36:40;100476.59;;;26.66;30.01
78855;BME280;68206;59.956;30.234;2023-07-13T07:39:12;100481.56;;;26.70;29.15
78855;BME280;68206;59.956;30.234;2023-07-13T07:41:40;100481.13;;;26.93;29.34
78855;BME280;68206;59.956;30.234;2023-07-13T07:44:23;100477.22;;;27.13;28.85
78855;BME280;68206;59.956;30.234;2023-07-13T07:46:52;100474.09;;;27.25;28.79
78855;BME280;68206;59.956;30.234;2023-07-13T07:49:21;100474.16;;;27.34;29.05
78855;BME280;68206;59.956;30.234;2023-07-13T07:51:49;100473.41;;;27.49;28.64
78855;BME280;68206;59.956;30.234;2023-07-13T07:54:19;100478.38;;;27.72;28.85
78855;BME280;68206;59.956;30.234;2023-07-13T07:57:07;100471.94;;;27.81;29.05
78855;BME280;68206;59.956;30.234;2023-07-13T07:59:39;100475.28;;;27.49;28.47
78855;BME280;68206;59.956;30.234;2023-07-13T08:02:12;100480.31;;;27.53;28.77
78855;BME280;68206;59.956;30.234;2023-07-13T08:05:07;100470.41;;;27.52;28.85
78855;BME280;68206;59.956;30.234;2023-07-13T08:07:39;100467.53;;;27.80;28.81
78855;BME280;68206;59.956;30.234;2023-07-13T08:10:08;100464.06;;;28.12;28.30
78855;BME280;68206;59.956;30.234;2023-07-13T08:12:37;100473.28;;;28.53;27.75
78855;BME280;68206;59.956;30.234;2023-07-13T08:15:10;100478.84;;;29.01;26.64
78855;BME280;68206;59.956;30.234;2023-07-13T08:17:45;100465.34;;;29.73;25.93
78855;BME280;68206;59.956;30.234;2023-07-13T08:20:14;100465.53;;;30.18;25.74
78855;BME280;68206;59.956;30.234;2023-07-13T08:22:42;100474.44;;;30.82;24.92
78855;BME280;68206;59.956;30.234;2023-07-13T08:25:10;100469.38;;;31.39;24.32
78855;BME280;68206;59.956;30.234;2023-07-13T08:27:38;100464.34;;;32.24;23.14
78855;BME280;68206;59.956;30.234;2023-07-13T08:30:07;100460.38;;;32.63;22.92
78855;BME280;68206;59.956;30.234;2023-07-13T08:32:36;100462.97;;;32.50;22.06
78855;BME280;68206;59.956;30.234;2023-07-13T08:35:06;100460.50;;;32.91;22.10
78855;BME280;68206;59.956;30.234;2023-07-13T08:37:35;100468.66;;;32.84;21.99
78855;BME280;68206;59.956;30.234;2023-07-13T08:40:03;100469.00;;;33.17;21.25
78855;BME280;68206;59.956;30.234;2023-07-13T08:42:36;100467.34;;;33.44;20.85
78855;BME280;68206;59.956;30.234;2023-07-13T08:45:18;100467.28;;;32.95;21.22
78855;BME280;68206;59.956;30.234;2023-07-13T08:47:51;100461.59;;;32.24;22.62
78855;BME280;68206;59.956;30.234;2023-07-13T08:50:27;100466.34;;;31.34;23.60
78855;BME280;68206;59.956;30.234;2023-07-13T08:53:13;100461.22;;;30.24;25.12
78855;BME280;68206;59.956;30.234;2023-07-13T08:55:42;100463.16;;;29.52;26.35
78855;BME280;68206;59.956;30.234;2023-07-13T08:58:12;100465.56;;;28.98;26.86
78855;BME280;68206;59.956;30.234;2023-07-13T09:00:46;100462.91;;;28.64;27.86
78855;BME280;68206;59.956;30.234;2023-07-13T09:03:21;100462.47;;;28.27;28.43
78855;BME280;68206;59.956;30.234;2023-07-13T09:05:54;100459.66;;;27.77;29.24
78855;BME280;68206;59.956;30.234;2023-07-13T09:08:38;100454.94;;;27.53;29.78
78855;BME280;68206;59.956;30.234;2023-07-13T09:11:19;100456.19;;;27.41;30.39
78855;BME280;68206;59.956;30.234;2023-07-13T09:13:56;100449.09;;;27.30;30.61
78855;BME280;68206;59.956;30.234;2023-07-13T09:16:28;100446.91;;;27.08;31.55
78855;BME280;68206;59.956;30.234;2023-07-13T09:19:00;100454.22;;;26.89;31.18
78855;BME280;68206;59.956;30.234;2023-07-13T09:21:32;100461.50;;;26.71;31.39
78855;BME280;68206;59.956;30.234;2023-07-13T09:24:23;100460.50;;;26.55;32.54
78855;BME280;68206;59.956;30.234;2023-07-13T09:26:55;100453.88;;;26.39;32.76
78855;BME280;68206;59.956;30.234;2023-07-13T09:29:28;100462.38;;;26.27;33.12
78855;BME280;68206;59.956;30.234;2023-07-13T09:31:59;100471.88;;;26.13;33.38
78855;BME280;68206;59.956;30.234;2023-07-13T09:34:29;100462.78;;;26.04;33.27
78855;BME280;68206;59.956;30.234;2023-07-13T09:37:00;100467.38;;;25.94;33.32
78855;BME280;68206;59.956;30.234;2023-07-13T09:39:30;100465.56;;;25.85;33.19
78855;BME280;68206;59.956;30.234;2023-07-13T09:42:07;100451.56;;;25.80;33.53
78855;BME280;68206;59.956;30.234;2023-07-13T09:44:52;100451.06;;;25.67;33.71
78855;BME280;68206;59.956;30.234;2023-07-13T09:47:21;100451.81;;;25.59;33.59
78855;BME280;68206;59.956;30.234;2023-07-13T09:49:55;100449.81;;;25.42;33.61
78855;BME280;68206;59.956;30.234;2023-07-13T09:52:42;100442.09;;;25.38;33.24
78855;BME280;68206;59.956;30.234;2023-07-13T09:55:25;100451.69;;;25.32;33.31
78855;BME280;68206;59.956;30.234;2023-07-13T09:57:53;100440.97;;;25.30;33.55
78855;BME280;68206;59.956;30.234;2023-07-13T10:00:24;100440.41;;;25.17;34.26
78855;BME280;68206;59.956;30.234;2023-07-13T10:03:02;100441.56;;;25.05;34.40
78855;BME280;68206;59.956;30.234;2023-07-13T10:05:39;100436.91;;;24.98;34.15
78855;BME280;68206;59.956;30.234;2023-07-13T10:08:17;100438.34;;;24.92;34.34
78855;BME280;68206;59.956;30.234;2023-07-13T10:10:46;100449.03;;;24.94;33.66
78855;BME280;68206;59.956;30.234;2023-07-13T10:13:25;100443.47;;;24.95;34.00
78855;BME280;68206;59.956;30.234;2023-07-13T10:15:55;100453.56;;;24.83;34.36
78855;BME280;68206;59.956;30.234;2023-07-13T10:18:25;100461.97;;;24.80;34.01
78855;BME280;68206;59.956;30.234;2023-07-13T10:21:04;100456.13;;;24.75;33.73
78855;BME280;68206;59.956;30.234;2023-07-13T10:24:12;100456.56;;;24.71;34.40
78855;BME280;68206;59.956;30.234;2023-07-13T10:26:46;100452.84;;;24.72;33.91
78855;BME280;68206;59.956;30.234;2023-07-13T10:29:16;100457.44;;;24.71;34.00
78855;BME280;68206;59.956;30.234;2023-07-13T10:31:45;100456.69;;;24.69;34.00
78855;BME280;68206;59.956;30.234;2023-07-13T10:34:14;100459.00;;;24.64;33.44
78855;BME280;68206;59.956;30.234;2023-07-13T10:36:44;100465.41;;;24.63;33.31
78855;BME280;68206;59.956;30.234;2023-07-13T10:39:17;100459.84;;;24.65;33.46
78855;BME280;68206;59.956;30.234;2023-07-13T10:41:49;100462.81;;;24.62;33.36
78855;BME280;68206;59.956;30.234;2023-07-13T10:44:22;100457.00;;;24.66;33.81
78855;BME280;68206;59.956;30.234;2023-07-13T10:46:55;100458.84;;;24.66;33.57
78855;BME280;68206;59.956;30.234;2023-07-13T10:49:24;100454.13;;;24.58;33.81
78855;BME280;68206;59.956;30.234;2023-07-13T10:51:54;100464.97;;;24.48;33.66
78855;BME280;68206;59.956;30.234;2023-07-13T10:54:30;100469.69;;;24.46;34.13
78855;BME280;68206;59.956;30.234;2023-07-13T10:57:16;100465.66;;;24.50;33.82
78855;BME280;68206;59.956;30.234;2023-07-13T10:59:49;100463.41;;;24.46;33.52
78855;BME280;68206;59.956;30.234;2023-07-13T11:02:40;100465.41;;;24.54;33.37
78855;BME280;68206;59.956;30.234;2023-07-13T11:05:25;100464.13;;;24.58;33.46
78855;BME280;68206;59.956;30.234;2023-07-13T11:07:56;100457.13;;;24.65;33.32
78855;BME280;68206;59.956;30.234;2023-07-13T11:10:51;100450.00;;;24.73;33.32
78855;BME280;68206;59.956;30.234;2023-07-13T11:16:44;100448.16;;;25.03;33.74
78855;BME280;68206;59.956;30.234;2023-07-13T11:22:22;100460.09;;;25.39;33.25
78855;BME280;68206;59.956;30.234;2023-07-13T11:24:59;100453.66;;;25.59;32.97
78855;BME280;68206;59.956;30.234;2023-07-13T11:27:42;100465.91;;;25.73;33.71
78855;BME280;68206;59.956;30.234;2023-07-13T11:30:32;100458.88;;;25.80;33.09
78855;BME280;68206;59.956;30.234;2023-07-13T11:33:16;100458.81;;;25.89;32.73
78855;BME280;68206;59.956;30.234;2023-07-13T11:35:50;100460.09;;;25.95;32.79
78855;BME280;68206;59.956;30.234;2023-07-13T11:38:21;100456.66;;;25.93;32.82
78855;BME280;68206;59.956;30.234;2023-07-13T11:40:53;100464.63;;;26.04;32.72
78855;BME280;68206;59.956;30.234;2023-07-13T11:43:23;100469.47;;;26.10;32.62
78855;BME280;68206;59.956;30.234;2023-07-13T11:45:52;100466.44;;;26.13;32.80
78855;BME280;68206;59.956;30.234;2023-07-13T11:48:23;100467.63;;;26.01;33.49
78855;BME280;68206;59.956;30.234;2023-07-13T11:50:54;100470.34;;;26.01;33.68
78855;BME280;68206;59.956;30.234;2023-07-13T11:53:26;100477.38;;;26.03;33.68
78855;BME280;68206;59.956;30.234;2023-07-13T11:55:55;100474.59;;;25.86;34.47
78855;BME280;68206;59.956;30.234;2023-07-13T11:58:26;100483.16;;;25.81;34.82
78855;BME280;68206;59.956;30.234;2023-07-13T12:00:59;100483.88;;;25.83;34.98
78855;BME280;68206;59.956;30.234;2023-07-13T12:03:29;100484.44;;;25.87;35.37
78855;BME280;68206;59.956;30.234;2023-07-13T12:05:59;100484.59;;;25.85;35.77
78855;BME280;68206;59.956;30.234;2023-07-13T12:08:29;100484.47;;;25.77;36.45
78855;BME280;68206;59.956;30.234;2023-07-13T12:10:59;100492.63;;;25.67;37.14
78855;BME280;68206;59.956;30.234;2023-07-13T12:13:29;100492.50;;;25.69;37.38
78855;BME280;68206;59.956;30.234;2023-07-13T12:16:15;100486.22;;;25.68;38.34
78855;BME280;68206;59.956;30.234;2023-07-13T12:18:44;100486.94;;;25.70;38.57
78855;BME280;68206;59.956;30.234;2023-07-13T12:21:18;100489.19;;;25.75;38.61
78855;BME280;68206;59.956;30.234;2023-07-13T12:23:49;100477.72;;;25.81;38.61
78855;BME280;68206;59.956;30.234;2023-07-13T12:26:18;100478.31;;;25.85;38.87
78855;BME280;68206;59.956;30.234;2023-07-13T12:28:49;100478.47;;;25.74;39.07
78855;BME280;68206;59.956;30.234;2023-07-13T12:31:31;100483.66;;;25.67;39.66
78855;BME280;68206;59.956;30.234;2023-07-13T12:34:01;100487.41;;;25.47;39.92
78855;BME280;68206;59.956;30.234;2023-07-13T12:36:32;100487.25;;;25.39;40.69
78855;BME280;68206;59.956;30.234;2023-07-13T12:39:06;100485.53;;;25.38;40.81
78855;BME280;68206;59.956;30.234;2023-07-13T12:41:40;100481.56;;;25.42;40.71
78855;BME280;68206;59.956;30.234;2023-07-13T12:44:12;100481.81;;;25.39;40.87
78855;BME280;68206;59.956;30.234;2023-07-13T12:46:52;100481.00;;;25.28;41.00
78855;BME280;68206;59.956;30.234;2023-07-13T12:49:24;100482.28;;;25.24;41.15
78855;BME280;68206;59.956;30.234;2023-07-13T12:51:56;100483.13;;;25.25;41.06
78855;BME280;68206;59.956;30.234;2023-07-13T12:54:27;100481.00;;;25.28;41.35
78855;BME280;68206;59.956;30.234;2023-07-13T12:56:57;100471.84;;;25.29;41.18
78855;BME280;68206;59.956;30.234;2023-07-13T12:59:30;100461.28;;;25.26;41.60
78855;BME280;68206;59.956;30.234;2023-07-13T13:02:00;100467.56;;;25.17;41.43
78855;BME280;68206;59.956;30.234;2023-07-13T13:04:30;100462.31;;;25.16;41.54
78855;BME280;68206;59.956;30.234;2023-07-13T13:07:03;100460.59;;;25.15;41.02
78855;BME280;68206;59.956;30.234;2023-07-13T13:09:31;100453.88;;;25.09;40.70
78855;BME280;68206;59.956;30.234;2023-07-13T13:12:00;100461.59;;;25.04;40.32
78855;BME280;68206;59.956;30.234;2023-07-13T13:14:30;100460.28;;;24.99;40.51
78855;BME280;68206;59.956;30.234;2023-07-13T13:16:58;100458.44;;;24.99;40.09
78855;BME280;68206;59.956;30.234;2023-07-13T13:19:28;100458.44;;;24.99;39.46
78855;BME280;68206;59.956;30.234;2023-07-13T13:21:57;100456.75;;;24.98;39.49
78855;BME280;68206;59.956;30.234;2023-07-13T13:24:27;100463.88;;;24.99;39.41
78855;BME280;68206;59.956;30.234;2023-07-13T13:26:56;100458.56;;;24.78;39.03
78855;BME280;68206;59.956;30.234;2023-07-13T13:29:25;100464.16;;;24.67;39.21
78855;BME280;68206;59.956;30.234;2023-07-13T13:31:55;100463.56;;;24.64;39.06
78855;BME280;68206;59.956;30.234;2023-07-13T13:34:24;100458.13;;;24.54;39.50
78855;BME280;68206;59.956;30.234;2023-07-13T13:36:54;100452.53;;;24.56;39.08
78855;BME280;68206;59.956;30.234;2023-07-13T13:39:30;100461.25;;;24.49;38.90
78855;BME280;68206;59.956;30.234;2023-07-13T13:42:00;100457.38;;;24.42;39.03
78855;BME280;68206;59.956;30.234;2023-07-13T13:44:28;100448.53;;;24.40;38.90
78855;BME280;68206;59.956;30.234;2023-07-13T13:46:58;100449.81;;;24.36;39.05
78855;BME280;68206;59.956;30.234;2023-07-13T13:49:27;100455.94;;;24.29;38.77
78855;BME280;68206;59.956;30.234;2023-07-13T13:51:56;100455.94;;;24.29;39.05
78855;BME280;68206;59.956;30.234;2023-07-13T13:54:24;100451.38;;;24.29;39.91
78855;BME280;68206;59.956;30.234;2023-07-13T13:56:53;100456.66;;;24.31;39.40
78855;BME280;68206;59.956;30.234;2023-07-13T13:59:22;100448.69;;;24.29;39.43
78855;BME280;68206;59.956;30.234;2023-07-13T14:01:50;100444.13;;;24.30;38.99
78855;BME280;68206;59.956;30.234;2023-07-13T14:04:21;100444.94;;;24.30;38.77
78855;BME280;68206;59.956;30.234;2023-07-13T14:06:50;100443.69;;;24.34;38.78
78855;BME280;68206;59.956;30.234;2023-07-13T14:09:19;100442.97;;;24.32;39.29
78855;BME280;68206;59.956;30.234;2023-07-13T14:11:48;100434.69;;;24.34;39.22
78855;BME280;68206;59.956;30.234;2023-07-13T14:14:21;100448.25;;;24.34;39.37
78855;BME280;68206;59.956;30.234;2023-07-13T14:16:50;100440.97;;;24.34;38.89
78855;BME280;68206;59.956;30.234;2023-07-13T14:19:23;100457.81;;;24.38;38.70
78855;BME280;68206;59.956;30.234;2023-07-13T14:21:53;100464.94;;;24.39;38.76
78855;BME280;68206;59.956;30.234;2023-07-13T14:24:21;100454.22;;;24.37;38.58
78855;BME280;68206;59.956;30.234;2023-07-13T14:26:49;100460.22;;;24.31;38.50
78855;BME280;68206;59.956;30.234;2023-07-13T14:29:19;100469.06;;;24.33;38.52
78855;BME280;68206;59.956;30.234;2023-07-13T14:31:50;100465.50;;;24.33;38.05
78855;BME280;68206;59.956;30.234;2023-07-13T14:34:19;100464.38;;;24.35;37.87
78855;BME280;68206;59.956;30.234;2023-07-13T14:36:50;100460.94;;;24.33;37.57
78855;BME280;68206;59.956;30.234;2023-07-13T14:39:20;100461.38;;;24.38;37.68
78855;BME280;68206;59.956;30.234;2023-07-13T14:41:50;100454.66;;;24.33;37.76
78855;BME280;68206;59.956;30.234;2023-07-13T14:44:24;100455.78;;;24.30;37.11
78855;BME280;68206;59.956;30.234;2023-07-13T14:46:52;100457.50;;;24.31;37.37
78855;BME280;68206;59.956;30.234;2023-07-13T14:49:24;100453.25;;;24.29;36.80
78855;BME280;68206;59.956;30.234;2023-07-13T14:51:56;100456.00;;;24.18;36.79
78855;BME280;68206;59.956;30.234;2023-07-13T14:54:26;100449.59;;;24.09;36.54
78855;BME280;68206;59.956;30.234;2023-07-13T14:56:57;100445.59;;;24.13;36.64
78855;BME280;68206;59.956;30.234;2023-07-13T14:59:26;100449.59;;;24.09;36.10
78855;BME280;68206;59.956;30.234;2023-07-13T15:01:54;100444.84;;;24.01;36.16
78855;BME280;68206;59.956;30.234;2023-07-13T15:04:22;100447.69;;;24.00;35.82
78855;BME280;68206;59.956;30.234;2023-07-13T15:06:56;100450.94;;;23.94;36.19
78855;BME280;68206;59.956;30.234;2023-07-13T15:09:26;100444.22;;;23.88;35.97
78855;BME280;68206;59.956;30.234;2023-07-13T15:11:56;100444.47;;;23.76;36.19
78855;BME280;68206;59.956;30.234;2023-07-13T15:14:26;100447.84;;;23.68;36.44
78855;BME280;68206;59.956;30.234;2023-07-13T15:16:58;100439.59;;;23.69;36.50
78855;BME280;68206;59.956;30.234;2023-07-13T15:19:27;100439.72;;;23.68;37.08
78855;BME280;68206;59.956;30.234;2023-07-13T15:21:57;100448.66;;;23.59;37.51
78855;BME280;68206;59.956;30.234;2023-07-13T15:24:26;100447.75;;;23.49;38.29
78855;BME280;68206;59.956;30.234;2023-07-13T15:26:54;100450.59;;;23.47;38.25
78855;BME280;68206;59.956;30.234;2023-07-13T15:29:22;100444.09;;;23.39;37.72
78855;BME280;68206;59.956;30.234;2023-07-13T15:31:51;100446.22;;;23.35;37.49
78855;BME280;68206;59.956;30.234;2023-07-13T15:34:24;100453.28;;;23.26;36.71
78855;BME280;68206;59.956;30.234;2023-07-13T15:36:54;100454.88;;;23.29;36.40
78855;BME280;68206;59.956;30.234;2023-07-13T15:39:23;100447.00;;;23.26;36.17
78855;BME280;68206;59.956;30.234;2023-07-13T15:41:52;100446.88;;;23.27;36.07
78855;BME280;68206;59.956;30.234;2023-07-13T15:44:24;100455.59;;;23.31;35.95
78855;BME280;68206;59.956;30.234;2023-07-13T15:46:54;100448.00;;;23.25;35.49
78855;BME280;68206;59.956;30.234;2023-07-13T15:49:23;100459.28;;;23.30;35.37
78855;BME280;68206;59.956;30.234;2023-07-13T15:51:51;100454.88;;;23.29;35.11
78855;BME280;68206;59.956;30.234;2023-07-13T15:54:20;100459.03;;;23.33;34.87
78855;BME280;68206;59.956;30.234;2023-07-13T15:56:52;100458.94;;;23.44;34.42
78855;BME280;68206;59.956;30.234;2023-07-13T15:59:21;100448.75;;;23.48;33.44
78855;BME280;68206;59.956;30.234;2023-07-13T16:01:50;100462.63;;;23.43;33.56
78855;BME280;68206;59.956;30.234;2023-07-13T16:04:18;100452.34;;;23.48;33.29
78855;BME280;68206;59.956;30.234;2023-07-13T16:06:47;100454.63;;;23.53;33.21
78855;BME280;68206;59.956;30.234;2023-07-13T16:09:19;100454.22;;;23.57;33.24
78855;BME280;68206;59.956;30.234;2023-07-13T16:11:50;100467.50;;;23.60;33.25
78855;BME280;68206;59.956;30.234;2023-07-13T16:14:21;100461.53;;;23.66;33.21
78855;BME280;68206;59.956;30.234;2023-07-13T16:16:51;100458.22;;;23.63;33.21
78855;BME280;68206;59.956;30.234;2023-07-13T16:19:23;100459.69;;;23.67;33.11
78855;BME280;68206;59.956;30.234;2023-07-13T16:21:57;100462.94;;;23.61;33.86
78855;BME280;68206;59.956;30.234;2023-07-13T16:24:27;100463.94;;;23.60;34.01
78855;BME280;68206;59.956;30.234;2023-07-13T16:26:58;100458.75;;;23.57;34.14
78855;BME280;68206;59.956;30.234;2023-07-13T16:29:30;100459.75;;;23.56;34.10
78855;BME280;68206;59.956;30.234;2023-07-13T16:32:03;100464.47;;;23.54;34.47
78855;BME280;68206;59.956;30.234;2023-07-13T16:34:38;100466.69;;;23.49;34.38
78855;BME280;68206;59.956;30.234;2023-07-13T16:37:14;100463.91;;;23.39;34.45
78855;BME280;68206;59.956;30.234;2023-07-13T16:39:46;100480.69;;;23.33;34.67
78855;BME280;68206;59.956;30.234;2023-07-13T16:42:16;100472.63;;;23.22;35.22
78855;BME280;68206;59.956;30.234;2023-07-13T16:44:45;100477.84;;;23.14;34.99
78855;BME280;68206;59.956;30.234;2023-07-13T16:47:15;100483.66;;;23.09;35.09
78855;BME280;68206;59.956;30.234;2023-07-13T16:49:45;100482.06;;;23.07;35.16
78855;BME280;68206;59.956;30.234;2023-07-13T16:52:17;100480.72;;;23.01;35.44
78855;BME280;68206;59.956;30.234;2023-07-13T16:54:48;100485.56;;;22.98;34.95
78855;BME280;68206;59.956;30.234;2023-07-13T16:57:20;100490.16;;;22.86;35.71
78855;BME280;68206;59.956;30.234;2023-07-13T16:59:52;100483.16;;;22.83;35.69
78855;BME280;68206;59.956;30.234;2023-07-13T17:02:30;100493.38;;;22.80;35.91
78855;BME280;68206;59.956;30.234;2023-07-13T17:05:00;100493.50;;;22.78;35.87
78855;BME280;68206;59.956;30.234;2023-07-13T17:07:29;100487.97;;;22.69;35.89
78855;BME280;68206;59.956;30.234;2023-07-13T17:09:57;100489.56;;;22.71;36.13
78855;BME280;68206;59.956;30.234;2023-07-13T17:12:28;100488.94;;;22.68;35.81
78855;BME280;68206;59.956;30.234;2023-07-13T17:14:56;100478.63;;;22.62;36.07
78855;BME280;68206;59.956;30.234;2023-07-13T17:17:31;100489.72;;;22.59;35.97
78855;BME280;68206;59.956;30.234;2023-07-13T17:20:00;100482.25;;;22.51;36.07
78855;BME280;68206;59.956;30.234;2023-07-13T17:22:31;100488.63;;;22.50;36.08
78855;BME280;68206;59.956;30.234;2023-07-13T17:24:59;100492.31;;;22.49;36.19
78855;BME280;68206;59.956;30.234;2023-07-13T17:27:28;100490.38;;;22.40;36.14